• Join FlightAware (Why Join?)
  • Login
  • US Flag 
04:25AM EST


 

Airport Tracker/Info


-or-


 

Live Flight TrackerFlight Track Log ✈ AFL150 ✈ 11-Feb-2014 ✈ UUEE / SVO - MUHA / HAV

Flight Track Log - Related Links

Times and Time Zones

All times are in EST time to prevent confusion due to time zone crossing. See the AFL150 flight status page for this flight to view local times or setup timezone preferences in your user account.

Time Position Orientation Groundspeed Altitude Reporting Facility
EST Latitude Longitude Course Direction KTS MPH feet Rate Location/Type
05:15AM 56.2035 37.1856 318° Northwest  Level FlightAware Approximate
05:16AM 56.2951 37.0346 318° Northwest  Level FlightAware Approximate
05:17AM 56.3865 36.8828 317° Northwest  Level FlightAware Approximate
05:18AM 56.4777 36.7303 317° Northwest  Level FlightAware Approximate
05:19AM 56.5688 36.5770 317° Northwest  Level FlightAware Approximate
05:20AM 56.6597 36.4230 317° Northwest  Level FlightAware Approximate
05:21AM 56.7503 36.2683 317° Northwest  Level FlightAware Approximate
05:22AM 56.8408 36.1128 317° Northwest  Level FlightAware Approximate
05:23AM 56.9311 35.9566 317° Northwest  Level FlightAware Approximate
05:24AM 57.0212 35.7996 317° Northwest  Level FlightAware Approximate
05:25AM 57.1111 35.6418 316° Northwest  Level FlightAware Approximate
05:26AM 57.2008 35.4833 316° Northwest  Level FlightAware Approximate
05:27AM 57.2903 35.3240 316° Northwest  Level FlightAware Approximate
05:28AM 57.3796 35.1640 316° Northwest  Level FlightAware Approximate
05:29AM 57.4687 35.0031 316° Northwest  Level FlightAware Approximate
05:30AM 57.5575 34.8415 316° Northwest  Level FlightAware Approximate
05:31AM 57.6462 34.6791 316° Northwest  Level FlightAware Approximate
05:32AM 57.6953 34.5837 315° West  Level FlightAware Approximate
05:33AM 57.7822 34.4174 314° West  Level FlightAware Approximate
05:34AM 57.8689 34.2502 314° West  Level FlightAware Approximate
05:35AM 57.9553 34.0822 314° West  Level FlightAware Approximate
05:36AM 58.0415 33.9134 314° West  Level FlightAware Approximate
05:37AM 58.1275 33.7438 314° West  Level FlightAware Approximate
05:38AM 58.2133 33.5733 314° West  Level FlightAware Approximate
05:39AM 58.2993 33.4028 314° West  Level FlightAware Approximate
05:40AM 58.3853 33.2319 314° West  Level FlightAware Approximate
05:41AM 58.4710 33.0603 314° West  Level FlightAware Approximate
05:42AM 58.5566 32.8878 314° West  Level FlightAware Approximate
05:43AM 58.6419 32.7144 313° West  Level FlightAware Approximate
05:44AM 58.7270 32.5402 313° West  Level FlightAware Approximate
05:45AM 58.8119 32.3652 313° West  Level FlightAware Approximate
05:46AM 58.8965 32.1893 313° West  Level FlightAware Approximate
05:47AM 58.9811 32.0130 313° West  Level FlightAware Approximate
05:48AM 59.0654 31.8357 313° West  Level FlightAware Approximate
05:49AM 59.1495 31.6576 313° West  Level FlightAware Approximate
05:50AM 59.2334 31.4786 313° West  Level FlightAware Approximate
05:51AM 59.3170 31.2987 312° West  Level FlightAware Approximate
05:52AM 59.4004 31.1180 312° West  Level FlightAware Approximate
05:53AM 59.4835 30.9363 312° West  Level FlightAware Approximate
05:54AM 59.5661 30.7534 312° West  Level FlightAware Approximate
05:55AM 59.6484 30.5694 312° West  Level FlightAware Approximate
05:56AM 59.7305 30.3846 311° West  Level FlightAware Approximate
05:57AM 59.8123 30.1988 311° West  Level FlightAware Approximate
05:58AM 59.8938 30.0122 311° West  Level FlightAware Approximate
05:59AM 59.9751 29.8246 311° West  Level FlightAware Approximate
06:00AM 60.0561 29.6361 311° West  Level FlightAware Approximate
06:01AM 60.1365 29.4461 310° West  Level FlightAware Approximate
06:02AM 60.2163 29.2546 310° West  Level FlightAware Approximate
06:03AM 60.2958 29.0621 310° West  Level FlightAware Approximate
06:04AM 60.3750 28.8687 310° West  Level FlightAware Approximate
06:05AM 60.4539 28.6744 310° West  Level FlightAware Approximate
06:06AM 60.5326 28.4791 309° West  Level FlightAware Approximate
06:07AM 60.6109 28.2828 309° West  Level FlightAware Approximate
06:08AM 60.6891 28.0859 310° West  Level FlightAware Approximate
06:09AM 60.7688 27.8909 310° West  Level FlightAware Approximate
06:10AM 60.8482 27.6949 310° West  Level FlightAware Approximate
06:11AM 60.9273 27.4980 310° West  Level FlightAware Approximate
06:12AM 61.0061 27.3001 309° West  Level FlightAware Approximate
06:13AM 61.0846 27.1012 309° West  Level FlightAware Approximate
06:14AM 61.1628 26.9013 309° West  Level FlightAware Approximate
06:15AM 61.2408 26.7004 309° West  Level FlightAware Approximate
06:16AM 61.3173 26.4967 308° West  Level FlightAware Approximate
06:17AM 61.3929 26.2911 308° West  Level FlightAware Approximate
06:18AM 61.4683 26.0845 307° West  Level FlightAware Approximate
06:19AM 61.5433 25.8769 307° West  Level FlightAware Approximate
06:20AM 61.6180 25.6683 307° West  Level FlightAware Approximate
06:21AM 61.6923 25.4587 307° West  Level FlightAware Approximate
06:22AM 61.7664 25.2480 307° West  Level FlightAware Approximate
06:23AM 61.8401 25.0364 306° West  Level FlightAware Approximate
06:24AM 61.9135 24.8237 306° West  Level FlightAware Approximate
06:25AM 61.9866 24.6100 306° West  Level FlightAware Approximate
06:26AM 62.0593 24.3953 306° West  Level FlightAware Approximate
06:27AM 62.1317 24.1796 306° West  Level FlightAware Approximate
06:28AM 62.2038 23.9628 306° West  Level FlightAware Approximate
06:29AM 62.2755 23.7450 305° West  Level FlightAware Approximate
06:30AM 62.3469 23.5262 305° West  Level FlightAware Approximate
06:31AM 62.4183 23.3068 305° West  Level FlightAware Approximate
06:32AM 62.4894 23.0865 305° West  Level FlightAware Approximate
06:33AM 62.5602 22.8651 305° West  Level FlightAware Approximate
06:34AM 62.6306 22.6427 305° West  Level FlightAware Approximate
06:35AM 62.7006 22.4192 304° West  Level FlightAware Approximate
06:36AM 62.7703 22.1946 304° West  Level FlightAware Approximate
06:37AM 62.8396 21.9690 304° West  Level FlightAware Approximate
06:38AM 62.9085 21.7423 304° West  Level FlightAware Approximate
06:39AM 62.9771 21.5146 304° West  Level FlightAware Approximate
06:40AM 63.0453 21.2857 303° West  Level FlightAware Approximate
06:41AM 63.1132 21.0558 303° West  Level FlightAware Approximate
06:42AM 63.1806 20.8249 303° West  Level FlightAware Approximate
06:43AM 63.2477 20.5928 303° West  Level FlightAware Approximate
06:44AM 63.3145 20.3597 303° West  Level FlightAware Approximate
06:45AM 63.3808 20.1255 302° West  Level FlightAware Approximate
06:46AM 63.4468 19.8903 302° West  Level FlightAware Approximate
06:47AM 63.5123 19.6539 302° West  Level FlightAware Approximate
06:48AM 63.5775 19.4165 302° West  Level FlightAware Approximate
06:49AM 63.6423 19.1779 302° West  Level FlightAware Approximate
06:50AM 63.7066 18.9383 301° West  Level FlightAware Approximate
06:51AM 63.7706 18.6976 301° West  Level FlightAware Approximate
06:52AM 63.8342 18.4558 301° West  Level FlightAware Approximate
06:53AM 63.8974 18.2129 301° West  Level FlightAware Approximate
06:54AM 63.9601 17.9689 300° West  Level FlightAware Approximate
06:55AM 64.0225 17.7239 300° West  Level FlightAware Approximate
06:56AM 64.0844 17.4777 300° West  Level FlightAware Approximate
06:57AM 64.1460 17.2304 300° West  Level FlightAware Approximate
06:58AM 64.2070 16.9821 300° West  Level FlightAware Approximate
06:59AM 64.2677 16.7326 299° West  Level FlightAware Approximate
07:00AM 64.3280 16.4821 299° West  Level FlightAware Approximate
07:01AM 64.3878 16.2305 299° West  Level FlightAware Approximate
07:02AM 64.4472 15.9777 299° West  Level FlightAware Approximate
07:03AM 64.5061 15.7239 298° West  Level FlightAware Approximate
07:04AM 64.5647 15.4690 298° West  Level FlightAware Approximate
07:05AM 64.6227 15.2130 298° West  Level FlightAware Approximate
07:06AM 64.6803 14.9558 298° West  Level FlightAware Approximate
07:07AM 64.7375 14.6977 298° West  Level FlightAware Approximate
07:08AM 64.7948 14.4391 298° West  Level FlightAware Approximate
07:09AM 64.8517 14.1794 297° West  Level FlightAware Approximate
07:10AM 64.9080 13.9186 297° West  Level FlightAware Approximate
07:11AM 64.9640 13.6567 297° West  Level FlightAware Approximate
07:12AM 65.0194 13.3937 297° West  Level FlightAware Approximate
07:13AM 65.0744 13.1296 296° West  Level FlightAware Approximate
07:14AM 65.1289 12.8644 296° West  Level FlightAware Approximate
07:15AM 65.1830 12.5982 296° West  Level FlightAware Approximate
07:16AM 65.2365 12.3308 296° West  Level FlightAware Approximate
07:17AM 65.2896 12.0624 295° West  Level FlightAware Approximate
07:18AM 65.3423 11.7929 295° West  Level FlightAware Approximate
07:19AM 65.3944 11.5223 295° West  Level FlightAware Approximate
07:20AM 65.4461 11.2507 295° West  Level FlightAware Approximate
07:21AM 65.4973 10.9779 294° West  Level FlightAware Approximate
07:22AM 65.5478 10.7040 294° West  Level FlightAware Approximate
07:23AM 65.5974 10.4286 294° West  Level FlightAware Approximate
07:24AM 65.6466 10.1521 293° West  Level FlightAware Approximate
07:25AM 65.6953 9.8747 293° West  Level FlightAware Approximate
07:26AM 65.7434 9.5961 293° West  Level FlightAware Approximate
07:27AM 65.7911 9.3166 293° West  Level FlightAware Approximate
07:28AM 65.8382 9.0360 292° West  Level FlightAware Approximate
07:29AM 65.8848 8.7543 292° West  Level FlightAware Approximate
07:30AM 65.9309 8.4717 292° West  Level FlightAware Approximate
07:31AM 65.9765 8.1881 292° West  Level FlightAware Approximate
07:32AM 66.0216 7.9034 291° West  Level FlightAware Approximate
07:33AM 66.0661 7.6177 291° West  Level FlightAware Approximate
07:34AM 66.1101 7.3311 291° West  Level FlightAware Approximate
07:35AM 66.1536 7.0434 291° West  Level FlightAware Approximate
07:36AM 66.1965 6.7548 290° West  Level FlightAware Approximate
07:37AM 66.2389 6.4652 290° West  Level FlightAware Approximate
07:38AM 66.2807 6.1746 290° West  Level FlightAware Approximate
07:39AM 66.3221 5.8831 290° West  Level FlightAware Approximate
07:40AM 66.3628 5.5906 289° West  Level FlightAware Approximate
07:41AM 66.4030 5.2971 289° West  Level FlightAware Approximate
07:42AM 66.4427 5.0028 289° West  Level FlightAware Approximate
07:43AM 66.4818 4.7074 288° West  Level FlightAware Approximate
07:44AM 66.5203 4.4112 288° West  Level FlightAware Approximate
07:45AM 66.5583 4.1141 288° West  Level FlightAware Approximate
07:46AM 66.5957 3.8160 288° West  Level FlightAware Approximate
07:47AM 66.6326 3.5171 287° West  Level FlightAware Approximate
07:48AM 66.6689 3.2173 287° West  Level FlightAware Approximate
07:49AM 66.7046 2.9166 287° West  Level FlightAware Approximate
07:50AM 66.7397 2.6150 287° West  Level FlightAware Approximate
07:51AM 66.7743 2.3126 286° West  Level FlightAware Approximate
07:52AM 66.8082 2.0094 286° West  Level FlightAware Approximate
07:53AM 66.8416 1.7053 286° West  Level FlightAware Approximate
07:54AM 66.8744 1.4003 285° West  Level FlightAware Approximate
07:55AM 66.9067 1.0946 285° West  Level FlightAware Approximate
07:56AM 66.9383 0.7881 285° West  Level FlightAware Approximate
07:57AM 66.9693 0.4808 285° West  Level FlightAware Approximate
07:58AM 66.9998 0.1727 284° West  Level FlightAware Approximate
07:59AM 67.0296 -0.1362 284° West  Level FlightAware Approximate
08:00AM 67.0589 -0.4458 284° West  Level FlightAware Approximate
08:01AM 67.0875 -0.7561 283° West  Level FlightAware Approximate
08:02AM 67.1155 -1.0672 283° West  Level FlightAware Approximate
08:03AM 67.1430 -1.3790 283° West  Level FlightAware Approximate
08:04AM 67.1698 -1.6915 283° West  Level FlightAware Approximate
08:05AM 67.1960 -2.0047 282° West  Level FlightAware Approximate
08:06AM 67.2216 -2.3185 282° West  Level FlightAware Approximate
08:07AM 67.2466 -2.6330 282° West  Level FlightAware Approximate
08:08AM 67.2710 -2.9482 281° West  Level FlightAware Approximate
08:09AM 67.2947 -3.2640 281° West  Level FlightAware Approximate
08:10AM 67.3178 -3.5804 281° West  Level FlightAware Approximate
08:11AM 67.3403 -3.8974 281° West  Level FlightAware Approximate
08:12AM 67.3622 -4.2150 280° West  Level FlightAware Approximate
08:13AM 67.3835 -4.5332 280° West  Level FlightAware Approximate
08:14AM 67.4041 -4.8519 280° West  Level FlightAware Approximate
08:15AM 67.4241 -5.1712 279° West  Level FlightAware Approximate
08:16AM 67.4435 -5.4910 279° West  Level FlightAware Approximate
08:17AM 67.4622 -5.8113 279° West  Level FlightAware Approximate
08:18AM 67.4803 -6.1322 279° West  Level FlightAware Approximate
08:19AM 67.4978 -6.4535 278° West  Level FlightAware Approximate
08:20AM 67.5146 -6.7752 278° West  Level FlightAware Approximate
08:21AM 67.5308 -7.0974 278° West  Level FlightAware Approximate
08:22AM 67.5467 -7.4199 277° West  Level FlightAware Approximate
08:23AM 67.5620 -7.7429 277° West  Level FlightAware Approximate
08:24AM 67.5766 -8.0662 277° West  Level FlightAware Approximate
08:25AM 67.5907 -8.3899 277° West  Level FlightAware Approximate
08:26AM 67.6041 -8.7140 276° West  Level FlightAware Approximate
08:27AM 67.6168 -9.0385 276° West  Level FlightAware Approximate
08:28AM 67.6289 -9.3633 276° West  Level FlightAware Approximate
08:29AM 67.6403 -9.6884 275° West  Level FlightAware Approximate
08:30AM 67.6511 -10.0139 275° West  Level FlightAware Approximate
08:31AM 67.6613 -10.3396 275° West  Level FlightAware Approximate
08:32AM 67.6708 -10.6656 275° West  Level FlightAware Approximate
08:33AM 67.6796 -10.9919 274° West  Level FlightAware Approximate
08:34AM 67.6878 -11.3184 274° West  Level FlightAware Approximate
08:35AM 67.6953 -11.6451 274° West  Level FlightAware Approximate
08:36AM 67.7022 -11.9720 273° West  Level FlightAware Approximate
08:37AM 67.7084 -12.2991 273° West  Level FlightAware Approximate
08:38AM 67.7140 -12.6263 273° West  Level FlightAware Approximate
08:39AM 67.7189 -12.9537 272° West  Level FlightAware Approximate
08:40AM 67.7231 -13.2813 272° West  Level FlightAware Approximate
08:41AM 67.7267 -13.6089 272° West  Level FlightAware Approximate
08:42AM 67.7297 -13.9366 272° West  Level FlightAware Approximate
08:43AM 67.7320 -14.2644 271° West  Level FlightAware Approximate
08:44AM 67.7335 -14.5923 270° West  Level FlightAware Approximate
08:45AM 67.7340 -14.9202 270° West  Level FlightAware Approximate
08:46AM 67.7339 -15.2481 270° West  Level FlightAware Approximate
08:47AM 67.7331 -15.5760 270° West  Level FlightAware Approximate
08:48AM 67.7316 -15.9038 269° West  Level FlightAware Approximate
08:49AM 67.7295 -16.2316 269° West  Level FlightAware Approximate
08:50AM 67.7267 -16.5594 269° West  Level FlightAware Approximate
08:51AM 67.7233 -16.8870 269° West  Level FlightAware Approximate
08:52AM 67.7192 -17.2146 268° West  Level FlightAware Approximate
08:53AM 67.7145 -17.5420 268° West  Level FlightAware Approximate
08:54AM 67.7091 -17.8693 268° West  Level FlightAware Approximate
08:55AM 67.7030 -18.1964 267° West  Level FlightAware Approximate
08:56AM 67.6963 -18.5233 267° West  Level FlightAware Approximate
08:57AM 67.6889 -18.8501 267° West  Level FlightAware Approximate
08:58AM 67.6809 -19.1766 266° West  Level FlightAware Approximate
08:59AM 67.6722 -19.5029 266° West  Level FlightAware Approximate
09:00AM 67.6629 -19.8290 266° West  Level FlightAware Approximate
09:01AM 67.6529 -20.1548 266° West  Level FlightAware Approximate
09:02AM 67.6423 -20.4803 265° West  Level FlightAware Approximate
09:03AM 67.6310 -20.8055 265° West  Level FlightAware Approximate
09:04AM 67.6191 -21.1304 265° West  Level FlightAware Approximate
09:05AM 67.6065 -21.4549 264° West  Level FlightAware Approximate
09:06AM 67.5933 -21.7791 264° West  Level FlightAware Approximate
09:07AM 67.5794 -22.1029 264° West  Level FlightAware Approximate
09:08AM 67.5649 -22.4263 263° West  Level FlightAware Approximate
09:09AM 67.5498 -22.7493 263° West  Level FlightAware Approximate
09:10AM 67.5340 -23.0720 263° West  Level FlightAware Approximate
09:11AM 67.5175 -23.3941 263° West  Level FlightAware Approximate
09:12AM 67.5005 -23.7158 262° West  Level FlightAware Approximate
09:13AM 67.4827 -24.0371 262° West  Level FlightAware Approximate
09:14AM 67.4644 -24.3578 262° West  Level FlightAware Approximate
09:15AM 67.4454 -24.6781 261° West  Level FlightAware Approximate
09:16AM 67.4258 -24.9978 261° West  Level FlightAware Approximate
09:17AM 67.4055 -25.3170 261° West  Level FlightAware Approximate
09:18AM 67.3847 -25.6356 260° West  Level FlightAware Approximate
09:19AM 67.3632 -25.9537 260° West  Level FlightAware Approximate
09:20AM 67.3410 -26.2712 260° West  Level FlightAware Approximate
09:21AM 67.3183 -26.5881 260° West  Level FlightAware Approximate
09:22AM 67.2949 -26.9044 259° West  Level FlightAware Approximate
09:23AM 67.2709 -27.2201 259° West  Level FlightAware Approximate
09:24AM 67.2463 -27.5351 259° West  Level FlightAware Approximate
09:25AM 67.2210 -27.8495 258° West  Level FlightAware Approximate
09:26AM 67.1952 -28.1632 258° West  Level FlightAware Approximate
09:27AM 67.1687 -28.4762 258° West  Level FlightAware Approximate
09:28AM 67.1416 -28.7885 258° West  Level FlightAware Approximate
09:29AM 67.1140 -29.1002 257° West  Level FlightAware Approximate
09:30AM 67.0857 -29.4111 257° West  Level FlightAware Approximate
09:31AM 67.0568 -29.7212 257° West  Level FlightAware Approximate
09:32AM 67.0273 -30.0307 256° West  Level FlightAware Approximate
09:33AM 66.9972 -30.3393 256° West  Level FlightAware Approximate
09:34AM 66.9665 -30.6472 256° West  Level FlightAware Approximate
09:35AM 66.9352 -30.9544 256° West  Level FlightAware Approximate
09:36AM 66.9034 -31.2607 255° West  Level FlightAware Approximate
09:37AM 66.8709 -31.5662 255° West  Level FlightAware Approximate
09:38AM 66.8379 -31.8709 255° West  Level FlightAware Approximate
09:39AM 66.8043 -32.1748 254° West  Level FlightAware Approximate
09:40AM 66.7701 -32.4778 254° West  Level FlightAware Approximate
09:41AM 66.7353 -32.7800 254° West  Level FlightAware Approximate
09:42AM 66.6999 -33.0814 254° West  Level FlightAware Approximate
09:43AM 66.6640 -33.3818 253° West  Level FlightAware Approximate
09:44AM 66.6275 -33.6814 253° West  Level FlightAware Approximate
09:45AM 66.5904 -33.9801 253° West  Level FlightAware Approximate
09:46AM 66.5528 -34.2779 253° West  Level FlightAware Approximate
09:47AM 66.5146 -34.5748 252° West  Level FlightAware Approximate
09:48AM 66.4759 -34.8708 252° West  Level FlightAware Approximate
09:49AM 66.4365 -35.1659 252° West  Level FlightAware Approximate
09:50AM 66.3967 -35.4600 251° West  Level FlightAware Approximate
09:51AM 66.3562 -35.7532 251° West  Level FlightAware Approximate
09:52AM 66.3153 -36.0454 251° West  Level FlightAware Approximate
09:53AM 66.2738 -36.3367 251° West  Level FlightAware Approximate
09:54AM 66.2317 -36.6270 250° West  Level FlightAware Approximate
09:55AM 66.1891 -36.9163 250° West  Level FlightAware Approximate
09:56AM 66.1460 -37.2047 250° West  Level FlightAware Approximate
09:57AM 66.1023 -37.4920 250° West  Level FlightAware Approximate
09:58AM 66.0581 -37.7784 249° West  Level FlightAware Approximate
09:59AM 66.0133 -38.0638 249° West  Level FlightAware Approximate
10:00AM 65.9681 -38.3482 249° West  Level FlightAware Approximate
10:01AM 65.9223 -38.6315 249° West  Level FlightAware Approximate
10:02AM 65.8760 -38.9139 248° West  Level FlightAware Approximate
10:03AM 65.8291 -39.1952 248° West  Level FlightAware Approximate
10:04AM 65.7818 -39.4755 248° West  Level FlightAware Approximate
10:05AM 65.7339 -39.7547 247° West  Level FlightAware Approximate
10:06AM 65.6856 -40.0330 247° West  Level FlightAware Approximate
10:07AM 65.6367 -40.3101 247° West  Level FlightAware Approximate
10:08AM 65.5874 -40.5863 247° West  Level FlightAware Approximate
10:09AM 65.5375 -40.8614 246° West  Level FlightAware Approximate
10:10AM 65.4872 -41.1354 246° West  Level FlightAware Approximate
10:11AM 65.4363 -41.4083 246° West  Level FlightAware Approximate
10:12AM 65.3850 -41.6802 246° West  Level FlightAware Approximate
10:13AM 65.3331 -41.9511 245° Southwest  Level FlightAware Approximate
10:14AM 65.2808 -42.2208 245° Southwest  Level FlightAware Approximate
10:15AM 65.2280 -42.4895 245° Southwest  Level FlightAware Approximate
10:16AM 65.1748 -42.7571 245° Southwest  Level FlightAware Approximate
10:17AM 65.1210 -43.0237 244° Southwest  Level FlightAware Approximate
10:18AM 65.0668 -43.2891 244° Southwest  Level FlightAware Approximate
10:19AM 65.0121 -43.5535 244° Southwest  Level FlightAware Approximate
10:20AM 64.9570 -43.8168 244° Southwest  Level FlightAware Approximate
10:21AM 64.9014 -44.0790 244° Southwest  Level FlightAware Approximate
10:22AM 64.8453 -44.3401 243° Southwest  Level FlightAware Approximate
10:23AM 64.7888 -44.6001 243° Southwest  Level FlightAware Approximate
10:24AM 64.7318 -44.8590 243° Southwest  Level FlightAware Approximate
10:25AM 64.6743 -45.1169 243° Southwest  Level FlightAware Approximate
10:26AM 64.6165 -45.3736 242° Southwest  Level FlightAware Approximate
10:27AM 64.5582 -45.6293 242° Southwest  Level FlightAware Approximate
10:28AM 64.4994 -45.8838 242° Southwest  Level FlightAware Approximate
10:29AM 64.4402 -46.1373 242° Southwest  Level FlightAware Approximate
10:30AM 64.3806 -46.3896 241° Southwest  Level FlightAware Approximate
10:31AM 64.3205 -46.6409 241° Southwest  Level FlightAware Approximate
10:32AM 64.2600 -46.8911 241° Southwest  Level FlightAware Approximate
10:33AM 64.1991 -47.1401 241° Southwest  Level FlightAware Approximate
10:34AM 64.1377 -47.3881 241° Southwest  Level FlightAware Approximate
10:35AM 64.0760 -47.6350 240° Southwest  Level FlightAware Approximate
10:36AM 64.0138 -47.8807 240° Southwest  Level FlightAware Approximate
10:37AM 63.9512 -48.1254 240° Southwest  Level FlightAware Approximate
10:38AM 63.8882 -48.3690 240° Southwest  Level FlightAware Approximate
10:39AM 63.8248 -48.6115 239° Southwest  Level FlightAware Approximate
10:40AM 63.7610 -48.8529 239° Southwest  Level FlightAware Approximate
10:41AM 63.6968 -49.0932 239° Southwest  Level FlightAware Approximate
10:42AM 63.6322 -49.3324 239° Southwest  Level FlightAware Approximate
10:43AM 63.5672 -49.5706 239° Southwest  Level FlightAware Approximate
10:44AM 63.5018 -49.8076 238° Southwest  Level FlightAware Approximate
10:45AM 63.4360 -50.0436 238° Southwest  Level FlightAware Approximate
10:46AM 63.3698 -50.2784 238° Southwest  Level FlightAware Approximate
10:47AM 63.3032 -50.5122 238° Southwest  Level FlightAware Approximate
10:48AM 63.2363 -50.7449 238° Southwest  Level FlightAware Approximate
10:49AM 63.1690 -50.9766 237° Southwest  Level FlightAware Approximate
10:50AM 63.1013 -51.2071 237° Southwest  Level FlightAware Approximate
10:51AM 63.0332 -51.4366 237° Southwest  Level FlightAware Approximate
10:52AM 62.9648 -51.6650 237° Southwest  Level FlightAware Approximate
10:53AM 62.8960 -51.8923 236° Southwest  Level FlightAware Approximate
10:54AM 62.8268 -52.1186 236° Southwest  Level FlightAware Approximate
10:55AM 62.7573 -52.3438 236° Southwest  Level FlightAware Approximate
10:56AM 62.6874 -52.5680 236° Southwest  Level FlightAware Approximate
10:57AM 62.6172 -52.7910 236° Southwest  Level FlightAware Approximate
10:58AM 62.5466 -53.0131 235° Southwest  Level FlightAware Approximate
10:59AM 62.4756 -53.2341 235° Southwest  Level FlightAware Approximate
11:00AM 62.4043 -53.4540 235° Southwest  Level FlightAware Approximate
11:01AM 62.3327 -53.6729 235° Southwest  Level FlightAware Approximate
11:02AM 62.2607 -53.8907 235° Southwest  Level FlightAware Approximate
11:03AM 62.1884 -54.1075 234° Southwest  Level FlightAware Approximate
11:04AM 62.1157 -54.3232 234° Southwest  Level FlightAware Approximate
11:05AM 62.0427 -54.5380 234° Southwest  Level FlightAware Approximate
11:06AM 61.9694 -54.7517 234° Southwest  Level FlightAware Approximate
11:07AM 61.8958 -54.9643 234° Southwest  Level FlightAware Approximate
11:08AM 61.8216 -55.1756 233° Southwest  Level FlightAware Approximate
11:09AM 61.7471 -55.3859 233° Southwest  Level FlightAware Approximate
11:10AM 61.6723 -55.5951 233° Southwest  Level FlightAware Approximate
11:11AM 61.5971 -55.8034 233° Southwest  Level FlightAware Approximate
11:12AM 61.5216 -56.0106 233° Southwest  Level FlightAware Approximate
11:13AM 61.4459 -56.2169 233° Southwest  Level FlightAware Approximate
11:14AM 61.3698 -56.4221 232° Southwest  Level FlightAware Approximate
11:15AM 61.2934 -56.6263 232° Southwest  Level FlightAware Approximate
11:16AM 61.2167 -56.8296 232° Southwest  Level FlightAware Approximate
11:17AM 61.1397 -57.0318 232° Southwest  Level FlightAware Approximate
11:18AM 61.0624 -57.2331 232° Southwest  Level FlightAware Approximate
11:19AM 60.9847 -57.4334 231° Southwest  Level FlightAware Approximate
11:20AM 60.9068 -57.6327 231° Southwest  Level FlightAware Approximate
11:21AM 60.8287 -57.8310 231° Southwest  Level FlightAware Approximate
11:22AM 60.7502 -58.0284 231° Southwest  Level FlightAware Approximate
11:23AM 60.6714 -58.2248 231° Southwest  Level FlightAware Approximate
11:23AM 63.3667 -56.0000 214° Southwest 450 518 36,000  Level Gander Center
11:24AM 60.5924 -58.4202 231° Southwest  Level FlightAware Approximate
11:24AM 63.2500 -56.3833 236° Southwest 430 495 36,000  Level Gander Center
11:25AM 60.5134 -58.6153 231° Southwest  Level FlightAware Approximate
11:25AM 63.1833 -56.5833 234° Southwest 440 506 36,000  Level Gander Center
11:26AM 60.4118 -58.7565 214° Southwest  Level Estimated
11:26AM 63.1167 -56.8167 238° Southwest 450 518 36,000  Level Gander Center
11:27AM 60.3100 -58.8969 214° Southwest  Level Estimated
11:27AM 63.0500 -57.0500 238° Southwest 440 506 36,000  Level Gander Center
11:28AM 60.2080 -59.0363 214° Southwest  Level Estimated
11:28AM 62.9667 -57.2667 230° Southwest 450 518 36,000  Level Gander Center
11:29AM 62.8833 -57.4667 228° Southwest 450 518 36,000  Level Gander Center
11:30AM 62.8333 -57.6833 243° Southwest 440 506 36,000  Level Gander Center
11:31AM 62.7500 -57.9167 232° Southwest 440 506 36,000  Level Gander Center
11:32AM 62.6667 -58.1000 225° Southwest 440 506 36,000  Level Gander Center
11:33AM 62.6167 -58.2667 237° Southwest 440 506 36,000  Level Montreal Center
11:34AM 62.5333 -58.4500 225° Southwest 430 495 36,000  Level Montreal Center
11:35AM 62.4500 -58.6833 232° Southwest 440 506 36,000  Level Montreal Center
11:36AM 62.3833 -58.8833 234° Southwest 440 506 36,000  Level Montreal Center
11:37AM 62.3167 -59.1000 237° Southwest 440 506 36,000  Level Montreal Center
11:38AM 62.2333 -59.2833 226° Southwest 440 506 36,000  Level Montreal Center
11:39AM 62.1667 -59.5167 239° Southwest 440 506 36,000  Level Montreal Center
11:40AM 62.0833 -59.7333 231° Southwest 440 506 36,000  Level Montreal Center
11:41AM 62.0167 -59.9167 232° Southwest 430 495 36,000  Level Montreal Center
11:42AM 61.9167 -60.0833 218° Southwest 430 495 36,000  Level Montreal Center
11:43AM 61.8333 -60.2667 226° Southwest 440 506 36,000  Level Montreal Center
11:44AM 61.7333 -60.4333 218° Southwest 440 506 36,000  Level Montreal Center
11:45AM 61.6500 -60.5833 221° Southwest 440 506 36,000  Level Montreal Center
11:46AM 61.5667 -60.7667 226° Southwest 440 506 36,000  Level Montreal Center
11:47AM 61.4667 -60.9167 216° Southwest 430 495 36,000  Level Montreal Center
11:48AM 61.3833 -61.1000 227° Southwest 440 506 36,000  Level Montreal Center
11:49AM 61.2833 -61.2500 216° Southwest 430 495 36,000  Level Montreal Center
11:50AM 61.2000 -61.4833 234° Southwest 440 506 36,000  Level Gander Center
11:51AM 61.1000 -61.5833 206° Southwest 430 495 36,000  Level Montreal Center
11:52AM 61.0000 -61.7333 216° Southwest 430 495 36,000  Level Montreal Center
11:53AM 60.9167 -61.8667 218° Southwest 430 495 36,000  Level Montreal Center
11:54AM 60.8333 -62.0500 227° Southwest 430 495 36,000  Level Montreal Center
11:55AM 60.7333 -62.2000 216° Southwest 460 529 36,000  Level Montreal Center
11:56AM 60.6333 -62.3667 219° Southwest 450 518 36,000  Level Montreal Center
11:57AM 60.5833 -62.6000 247° West 420 483 36,000  Level Montreal Center
11:58AM 60.5333 -62.8333 247° West 430 495 36,000  Level Montreal Center
11:59AM 60.4833 -63.0667 247° West 430 495 36,000  Level Montreal Center
12:00PM 60.4333 -63.2833 245° Southwest 430 495 36,000  Level Montreal Center
12:01PM 60.4000 -63.5000 253° West 430 495 36,000  Level Montreal Center
12:02PM 60.3667 -63.7667 256° West 430 495 36,000  Level Montreal Center
12:03PM 60.3167 -63.9833 245° Southwest 430 495 36,000  Level Montreal Center
12:04PM 60.2833 -64.2000 253° West 430 495 36,000  Level Montreal Center
12:05PM 60.2333 -64.4167 245° Southwest 440 506 36,000  Level Montreal Center
12:06PM 60.1833 -64.6500 247° West 430 495 36,000  Level Montreal Center
12:07PM 60.1500 -64.8667 253° West 430 495 36,000  Level Montreal Center
12:08PM 60.0833 -65.0833 238° Southwest 430 495 36,000  Level Montreal Center
12:09PM 60.0167 -65.2500 231° Southwest 430 495 36,000  Level Montreal Center
12:10PM 59.9167 -65.4167 220° Southwest 430 495 36,000  Level Montreal Center
12:11PM 59.8333 -65.5667 222° Southwest 430 495 36,000  Level Montreal Center
12:12PM 59.7500 -65.7333 225° Southwest 430 495 36,000  Level Montreal Center
12:13PM 59.6333 -65.9000 216° Southwest 430 495 36,000  Level Montreal Center
12:14PM 59.5500 -66.0667 225° Southwest 430 495 36,000  Level Montreal Center
12:15PM 59.4667 -66.2167 222° Southwest 430 495 36,000  Level Montreal Center
12:16PM 59.3667 -66.3833 220° Southwest 430 495 36,000  Level Montreal Center
12:17PM 59.2833 -66.5000 216° Southwest 430 495 36,000  Level Montreal Center
12:18PM 59.1833 -66.6500 218° Southwest 430 495 36,000  Level Montreal Center
12:19PM 59.1000 -66.8167 226° Southwest 430 495 36,000  Level Montreal Center
12:20PM 59.0000 -66.9667 218° Southwest 430 495 36,000  Level Montreal Center
12:21PM 58.9167 -67.1167 223° Southwest 430 495 36,000  Level Montreal Center
12:22PM 58.8167 -67.2833 221° Southwest 430 495 36,000  Level Montreal Center
12:23PM 58.7333 -67.4000 216° Southwest 430 495 36,000  Level Montreal Center
12:24PM 58.6333 -67.5500 218° Southwest 430 495 36,000  Level Montreal Center
12:25PM 58.5333 -67.7000 218° Southwest 430 495 36,000  Level Montreal Center
12:26PM 58.4333 -67.8500 218° Southwest 430 495 36,000  Level Montreal Center
12:27PM 58.3500 -68.0000 223° Southwest 430 495 36,000  Level Montreal Center
12:28PM 58.2500 -68.1500 218° Southwest 430 495 36,000  Level Montreal Center
12:29PM 58.1667 -68.3000 224° Southwest 450 518 36,000  Level Montreal Center
12:31PM 58.0000 -68.5167 215° Southwest 450 518 36,000  Level Montreal Center
12:32PM 57.9167 -68.6667 224° Southwest 440 506 36,000  Level Montreal Center
12:33PM 57.8000 -68.7833 208° Southwest 430 495 36,000  Level Montreal Center
12:34PM 57.7000 -68.9333 219° Southwest 430 495 36,000  Level Montreal Center
12:35PM 57.6167 -69.0500 217° Southwest 430 495 36,000  Level Montreal Center
12:36PM 57.5167 -69.1833 216° Southwest 430 495 36,000  Level Montreal Center
12:37PM 57.4333 -69.3333 224° Southwest 430 495 36,000  Level Montreal Center
12:38PM 57.3333 -69.4500 212° Southwest 430 495 36,000  Level Montreal Center
12:39PM 57.2167 -69.5833 212° Southwest 430 495 36,000  Level Montreal Center
12:40PM 57.1167 -69.7000 212° Southwest 430 495 36,000  Level Montreal Center
12:41PM 57.0333 -69.8333 221° Southwest 430 495 36,000  Level Montreal Center
12:42PM 56.9333 -69.9667 216° Southwest 430 495 36,000  Level Montreal Center
12:43PM 56.8333 -70.0833 213° Southwest 430 495 36,000  Level Montreal Center
12:44PM 56.7333 -70.2167 216° Southwest 430 495 36,000  Level Montreal Center
12:45PM 56.6333 -70.3667 220° Southwest 430 495 36,000  Level Montreal Center
12:46PM 56.5333 -70.4667 209° Southwest 430 495 36,000  Level Montreal Center
12:47PM 56.4167 -70.6000 212° Southwest 430 495 36,000  Level Montreal Center
12:48PM 56.3333 -70.7333 222° Southwest 430 495 36,000  Level Montreal Center
12:49PM 56.2333 -70.8500 213° Southwest 440 506 36,000  Level Montreal Center
12:50PM 56.1167 -70.9833 213° Southwest 440 506 36,000  Level Montreal Center
12:51PM 56.0167 -71.0833 209° Southwest 430 495 36,000  Level Montreal Center
12:52PM 55.9333 -71.2167 222° Southwest 430 495 36,000  Level Montreal Center
12:53PM 55.8333 -71.3167 209° Southwest 430 495 36,000  Level Montreal Center
12:54PM 55.7333 -71.4500 217° Southwest 430 495 36,000  Level Montreal Center
12:55PM 55.6167 -71.5500 206° Southwest 440 506 36,000  Level Montreal Center
12:56PM 55.5167 -71.6833 217° Southwest 440 506 36,000  Level Montreal Center
12:57PM 55.4167 -71.8000 214° Southwest 430 495 36,000  Level Montreal Center
12:58PM 55.3333 -71.9000 214° Southwest 440 506 36,000  Level Montreal Center
12:59PM 55.2167 -72.0333 213° Southwest 430 495 36,000  Level Montreal Center
01:00PM 55.1167 -72.1667 217° Southwest 440 506 36,000  Level Montreal Center
01:01PM 55.0000 -72.2667 206° Southwest 440 506 36,000  Level Montreal Center
01:02PM 54.9000 -72.3833 214° Southwest 440 506 36,000  Level Montreal Center
01:03PM 54.8000 -72.5167 218° Southwest 440 506 36,000  Level Montreal Center
01:04PM 54.6833 -72.6167 206° Southwest 440 506 36,000  Level Montreal Center
01:05PM 54.6000 -72.7333 219° Southwest 440 506 36,000  Level Montreal Center
01:06PM 54.5000 -72.8667 218° Southwest 440 506 36,000  Level Montreal Center
01:07PM 54.3833 -72.9500 203° Southwest 440 506 36,000  Level Montreal Center
01:08PM 54.2833 -73.0833 218° Southwest 440 506 36,000  Level Montreal Center
01:09PM 54.1833 -73.2000 214° Southwest 440 506 36,000  Level Montreal Center
01:10PM 54.0667 -73.3000 207° Southwest 450 518 36,000  Level Montreal Center
01:11PM 53.9500 -73.4167 210° Southwest 450 518 36,000  Level Montreal Center
01:12PM 53.8500 -73.5333 215° Southwest 450 518 36,000  Level Montreal Center
01:13PM 53.7500 -73.6500 215° Southwest 440 506 36,000  Level Montreal Center
01:14PM 53.6333 -73.7500 207° Southwest 440 506 36,000  Level Montreal Center
01:15PM 53.5167 -73.8333 203° Southwest 440 506 36,000  Level Montreal Center
01:16PM 53.4000 -73.9333 207° Southwest 450 518 36,000  Level Montreal Center
01:17PM 53.3000 -74.0500 215° Southwest 450 518 36,000  Level Montreal Center
01:18PM 53.1833 -74.1333 203° Southwest 450 518 36,000  Level Montreal Center
01:19PM 53.0667 -74.2333 207° Southwest 450 518 36,000  Level Montreal Center
01:20PM 52.9500 -74.3167 203° Southwest 450 518 36,000  Level Montreal Center
01:21PM 52.8667 -74.4000 211° Southwest 450 518 36,000  Level Montreal Center
01:22PM 52.7333 -74.4833 201° Southwest 460 529 36,000  Level Montreal Center
01:23PM 52.6333 -74.6000 215° Southwest 460 529 36,000  Level Montreal Center
01:24PM 52.5167 -74.7000 208° Southwest 460 529 36,000  Level Montreal Center
01:25PM 52.3833 -74.7833 201° Southwest 460 529 36,000  Level Montreal Center
01:26PM 52.2667 -74.8667 204° Southwest 440 506 36,000  Level Montreal Center
01:27PM 52.1500 -74.9500 204° Southwest 460 529 36,000  Level Montreal Center
01:28PM 52.0333 -75.0667 212° Southwest 460 529 36,000  Level Montreal Center
01:29PM 51.9167 -75.1500 204° Southwest 460 529 36,000  Level Montreal Center
01:30PM 51.8000 -75.2333 204° Southwest 460 529 36,000  Level Montreal Center
01:31PM 51.6833 -75.3167 204° Southwest 460 529 36,000  Level Montreal Center
01:32PM 51.5833 -75.4167 212° Southwest 460 529 36,000  Level Montreal Center
01:33PM 51.4667 -75.5000 204° Southwest 460 529 36,000  Level Montreal Center
01:34PM 51.3500 -75.5833 204° Southwest 460 529 36,000  Level Montreal Center
01:35PM 51.2333 -75.6667 204° Southwest 450 518 36,000  Level Montreal Center
01:36PM 51.1167 -75.7500 204° Southwest 460 529 36,000  Level Montreal Center
01:37PM 51.0000 -75.8500 208° Southwest 460 529 36,000  Level Montreal Center
01:38PM 50.8833 -75.9333 204° Southwest 460 529 36,000  Level Montreal Center
01:39PM 50.7667 -76.0167 204° Southwest 460 529 36,000  Level Montreal Center
01:40PM 50.6500 -76.1000 204° Southwest 460 529 36,000  Level Montreal Center
01:41PM 50.5333 -76.2000 209° Southwest 460 529 36,000  Level Montreal Center
01:42PM 50.4333 -76.2833 208° Southwest 460 529 36,000  Level Montreal Center
01:43PM 50.3167 -76.3667 205° Southwest 460 529 36,000  Level Montreal Center
01:44PM 50.2000 -76.4333 200° South 460 529 36,000  Level Montreal Center
01:45PM 50.0667 -76.5167 202° Southwest 460 529 36,000  Level Montreal Center
01:46PM 49.9500 -76.6167 209° Southwest 460 529 36,000  Level Montreal Center
01:47PM 49.8333 -76.7000 205° Southwest 460 529 36,000  Level Montreal Center
01:48PM 49.7167 -76.7667 200° South 450 518 36,000  Level Montreal Center
01:49PM 49.6000 -76.8500 205° Southwest 460 529 36,000  Level Montreal Center
01:50PM 49.4833 -76.9500 209° Southwest 450 518 36,000  Level Montreal Center
01:51PM 49.3667 -77.0167 200° South 480 552 36,000  Level Montreal Center
01:52PM 49.2667 -77.1000 209° Southwest 450 518 36,000  Level Montreal Center
01:53PM 49.1333 -77.1667 198° South 450 518 36,000  Level Montreal Center
01:54PM 49.0333 -77.2500 209° Southwest 460 529 36,000  Level Montreal Center
01:55PM 48.9000 -77.3167 198° South 460 529 36,000  Level Montreal Center
01:56PM 48.7833 -77.4167 209° Southwest 450 518 36,000  Level Montreal Center
01:57PM 48.6667 -77.5000 205° Southwest 450 518 36,000  Level Montreal Center
01:58PM 48.5500 -77.5667 201° Southwest 450 518 36,000  Level Montreal Center
01:59PM 48.4500 -77.6333 204° Southwest 450 518 36,000  Level Montreal Center
02:00PM 48.3333 -77.7333 210° Southwest 450 518 36,000  Level Montreal Center
02:01PM 48.2167 -77.8000 201° Southwest 450 518 36,000  Level Montreal Center
02:02PM 48.1000 -77.8833 206° Southwest 450 518 36,000  Level Montreal Center
02:03PM 47.9667 -77.9500 199° South 450 518 36,000  Level Montreal Center
02:04PM 47.8500 -78.0000 196° South 460 529 36,000  Level Montreal Center
02:05PM 47.7333 -78.0667 201° Southwest 450 518 36,000  Level Montreal Center
02:06PM 47.6167 -78.1333 201° Southwest 450 518 36,000  Level Montreal Center
02:07PM 47.5000 -78.2000 201° Southwest 450 518 36,000  Level Montreal Center
02:08PM 47.3833 -78.2667 201° Southwest 450 518 36,000  Level Montreal Center
02:09PM 47.2833 -78.3500 209° Southwest 450 518 36,000  Level Montreal Center
02:10PM 47.1500 -78.4167 199° South 450 518 36,000  Level Montreal Center
02:11PM 47.0333 -78.4833 201° Southwest 450 518 36,000  Level Montreal Center
02:12PM 46.9000 -78.5500 199° South 450 518 36,000  Level Montreal Center
02:13PM 46.8000 -78.6167 205° Southwest 450 518 36,000  Level Montreal Center
02:14PM 46.7333 -78.6167 180° South 450 518 36,000  Level Toronto Center
02:15PM 46.6167 -78.6833 201° Southwest 450 518 36,000  Level Toronto Center
02:16PM 46.5000 -78.7667 206° Southwest 450 518 36,000  Level Toronto Center
02:17PM 46.3833 -78.8167 196° South 450 518 36,000  Level Toronto Center
02:18PM 46.2667 -78.8833 202° Southwest 450 518 36,000  Level Toronto Center
02:19PM 46.1500 -78.9333 197° South 450 518 36,000  Level Toronto Center
02:25PM 45.4807 -79.3253 197° South 448 516 36,000  Level FlightAware ADS-B
02:25PM 45.4047 -79.3656 200° South 448 516 36,000  Level FlightAware ADS-B
02:27PM 45.1700 -79.4888 200° South 442 509 36,000  Level FlightAware ADS-B
02:29PM 44.9905 -79.5824 200° South 431 496 36,000  Level FlightAware ADS-B
02:31PM 44.7154 -79.7248 200° South 437 503 36,000  Level FlightAware ADS-B (EPWA / WAW)
02:32PM 44.6103 -79.7795 200° South 433 498 36,000  Level FlightAware ADS-B (EPWA / WAW)
02:33PM 44.5595 -79.8135 206° Southwest 425 489 36,000  Level FlightAware ADS-B
02:33PM 44.4907 -79.8744 212° Southwest 418 481 36,000  Level FlightAware ADS-B (EPWA / WAW)
02:34PM 44.4251 -79.9346 213° Southwest 419 482 36,000  Level FlightAware ADS-B (EPWA / WAW)
02:34PM 44.3749 -79.9799 213° Southwest 419 482 36,000  Level FlightAware ADS-B (EPWA / WAW)
02:35PM 44.3070 -80.0409 213° Southwest 421 484 36,000  Level FlightAware ADS-B (EPWA / WAW)
02:36PM 44.2543 -80.0881 213° Southwest 421 484 36,000  Level FlightAware ADS-B (EPWA / WAW)
02:37PM 44.1630 -80.1695 213° Southwest 422 486 36,000  Level FlightAware ADS-B (EPWA / WAW)
02:37PM 44.1129 -80.2141 213° Southwest 423 487 36,000  Level FlightAware ADS-B (CYKF)
02:38PM 44.0211 -80.2954 213° Southwest 421 484 36,000  Level FlightAware ADS-B (CYKF)
02:39PM 43.9663 -80.3439 212° Southwest 420 483 36,000  Level FlightAware ADS-B (CYKF)
02:39PM 43.9149 -80.3893 212° Southwest 420 483 36,000  Level FlightAware ADS-B
02:40PM 43.8422 -80.4533 212° Southwest 418 481 36,000  Level FlightAware ADS-B (EPWA / WAW)
02:40PM 43.8165 -80.4758 212° Southwest 417 480 36,000  Level FlightAware ADS-B (EPWA / WAW)
02:41PM 43.7389 -80.5439 212° Southwest 420 483 36,000  Level FlightAware ADS-B
02:42PM 43.6781 -80.5971 212° Southwest 422 486 36,000  Level FlightAware ADS-B
02:43PM 43.5779 -80.6844 212° Southwest 423 487 36,000  Level FlightAware ADS-B (CYKF)
02:43PM 43.5039 -80.7488 212° Southwest 423 487 36,000  Level FlightAware ADS-B (EPWA / WAW)
02:44PM 43.4447 -80.8000 212° Southwest 422 486 36,000  Level FlightAware ADS-B (CYKF)
02:44PM 43.3962 -80.8419 212° Southwest 422 486 36,000  Level FlightAware ADS-B (CYKF)
02:45PM 43.3382 -80.8918 212° Southwest 422 486 36,000  Level FlightAware ADS-B (CYKF)
02:46PM 43.2621 -80.9572 212° Southwest 421 484 36,000  Level FlightAware ADS-B (EPWA / WAW)
02:46PM 43.2031 -81.0079 212° Southwest 421 484 36,000  Level FlightAware ADS-B (CYKF)
02:47PM 43.1410 -81.0611 212° Southwest 419 482 36,000  Level FlightAware ADS-B (EPWA / WAW)
02:48PM 43.0780 -81.1148 212° Southwest 417 480 36,000  Level FlightAware ADS-B (EPWA / WAW)
02:48PM 43.0397 -81.1461 211° Southwest 423 487 36,000  Level FlightAware ADS-B (CYKF)
02:49PM 42.9779 -81.1847 205° Southwest 427 491 36,000  Level FlightAware ADS-B (EPWA / WAW)
02:49PM 42.8961 -81.2365 205° Southwest 428 493 36,000  Level FlightAware ADS-B (EPWA / WAW)
02:50PM 42.8315 -81.2768 205° Southwest 429 494 36,000  Level FlightAware ADS-B (EPWA / WAW)
02:51PM 42.7513 -81.3260 204° Southwest 429 494 36,000  Level FlightAware ADS-B (EPWA / WAW)
02:51PM 42.6969 -81.3594 204° Southwest 430 495 36,000  Level FlightAware ADS-B (EPWA / WAW)
02:52PM 42.6431 -81.3923 204° Southwest 429 494 36,000  Level FlightAware ADS-B (CYKF)
02:52PM 42.6223 -81.4051 204° Southwest 428 493 36,000  Level FlightAware ADS-B (EPWA / WAW)
02:53PM 42.5250 -81.4643 204° Southwest 428 493 36,000  Level FlightAware ADS-B (CYKF)
02:54PM 42.4025 -81.5394 204° Southwest 425 489 36,000  Level Cleveland Center
02:55PM 42.2936 -81.6050 204° Southwest 425 489 36,000  Level Cleveland Center
02:56PM 42.1669 -81.6819 204° Southwest 425 489 36,000  Level Cleveland Center
02:57PM 42.0583 -81.7464 204° Southwest 424 488 36,000  Level Cleveland Center
02:58PM 41.9506 -81.8108 204° Southwest 422 486 36,000  Level Cleveland Center
02:59PM 41.8428 -81.8747 204° Southwest 420 483 36,000  Level Cleveland Center
03:00PM 41.7353 -81.9394 204° Southwest 421 484 36,000  Level Cleveland Center
03:01PM 41.6286 -82.0014 203° Southwest 418 481 36,000  Level Cleveland Center
03:02PM 41.5036 -82.0756 204° Southwest 420 483 36,000  Level Cleveland Center
03:03PM 41.3975 -82.1375 204° Southwest 417 480 36,000  Level Cleveland Center
03:04PM 41.2861 -82.1856 198° South 423 487 36,000  Level Cleveland Center
03:05PM 41.1706 -82.2283 196° South 428 493 36,000  Level Cleveland Center
03:06PM 41.0550 -82.2708 196° South 430 495 36,000  Level Cleveland Center
03:07PM 40.9194 -82.3183 195° South 430 495 36,000  Level Cleveland Center
03:08PM 40.8611 -82.3383 195° South 429 494 36,000  Level Indianapolis Center
03:09PM 40.7444 -82.3800 195° South 430 495 36,000  Level Indianapolis Center
03:10PM 40.6094 -82.4278 195° South 428 493 36,000  Level Indianapolis Center
03:11PM 40.4942 -82.4678 195° South 426 490 36,000  Level Indianapolis Center
03:17PM 39.9190 -82.6042 195° South 440 506 36,000  Level FlightAware ADS-B
03:17PM 39.7638 -82.6147 183° South 443 510 36,000  Level FlightAware ADS-B
03:18PM 39.6826 -82.6202 183° South 444 511 36,000  Level FlightAware ADS-B
03:19PM 39.5995 -82.6258 183° South 444 511 36,000  Level FlightAware ADS-B
03:19PM 39.5345 -82.6302 183° South 443 510 36,000  Level FlightAware ADS-B
03:20PM 39.4530 -82.6356 183° South 439 505 36,000  Level FlightAware ADS-B
03:21PM 39.3502 -82.6425 183° South 436 502 36,000  Level FlightAware ADS-B
03:22PM 39.2401 -82.6498 183° South 435 501 36,000  Level FlightAware ADS-B
03:22PM 39.1618 -82.6550 183° South 435 501 36,000  Level FlightAware ADS-B
03:23PM 39.0850 -82.6599 183° South 433 498 36,000  Level FlightAware ADS-B
03:24PM 39.0092 -82.6650 183° South 432 497 36,000  Level FlightAware ADS-B
03:24PM 38.9383 -82.6697 183° South 430 495 36,000  Level FlightAware ADS-B
03:25PM 38.8611 -82.6749 183° South 428 493 36,000  Level FlightAware ADS-B
03:25PM 38.7944 -82.6793 183° South 429 494 36,000  Level FlightAware ADS-B
03:26PM 38.7221 -82.6840 183° South 431 496 36,000  Level FlightAware ADS-B
03:27PM 38.6520 -82.6886 183° South 432 497 36,000  Level FlightAware ADS-B
03:28PM 38.5317 -82.6969 183° South 431 496 36,000  Level Indianapolis Center
03:29PM 38.4106 -82.7047 183° South 433 498 36,000  Level Indianapolis Center
03:30PM 38.2900 -82.7128 183° South 433 498 36,000  Level Indianapolis Center
03:31PM 38.1700 -82.7203 183° South 432 497 36,000  Level Indianapolis Center
03:32PM 38.0306 -82.7308 183° South 429 494 36,000  Level Indianapolis Center
03:33PM 37.9114 -82.7381 183° South 428 493 36,000  Level Indianapolis Center
03:34PM 37.7928 -82.7442 182° South 427 491 36,000  Level Indianapolis Center
03:35PM 37.6786 -82.7661 189° South 418 481 36,000  Level Indianapolis Center
03:36PM 37.5753 -82.8181 202° Southwest 402 463 36,000  Level Indianapolis Center
03:37PM 37.4803 -82.8817 208° Southwest 389 448 36,000  Level Indianapolis Center
03:38PM 37.3689 -82.9561 208° Southwest 389 448 36,000  Level Indianapolis Center
03:39PM 37.2747 -83.0175 207° Southwest 385 443 36,000  Level Indianapolis Center
03:40PM 37.1789 -83.0794 207° Southwest 387 445 36,000  Level Indianapolis Center
03:41PM 37.0858 -83.1406 208° Southwest 383 441 36,000  Level Indianapolis Center
03:42PM 36.9778 -83.2094 207° Southwest 378 435 36,000  Level Indianapolis Center
03:43PM 36.8856 -83.2703 208° Southwest 377 434 36,000  Level Indianapolis Center
03:44PM 36.7925 -83.3292 207° Southwest 376 433 36,000  Level Indianapolis Center
03:45PM 36.7008 -83.3881 207° Southwest 373 429 36,000  Level Indianapolis Center
03:46PM 36.6106 -83.4464 207° Southwest 368 423 36,000  Level Indianapolis Center
03:47PM 36.5053 -83.5142 207° Southwest 366 421 36,000  Level Indianapolis Center
03:48PM 36.4272 -83.5628 207° Southwest 363 418 36,000  Level Indianapolis Center
03:49PM 36.3183 -83.6322 207° Southwest 365 420 36,000  Level Indianapolis Center
03:50PM 36.2283 -83.6897 207° Southwest 364 419 36,000  Level Indianapolis Center
03:51PM 36.1356 -83.7475 207° Southwest 368 423 36,000  Level Indianapolis Center
03:52PM 36.0458 -83.8064 208° Southwest 366 421 36,000  Level Indianapolis Center
03:54PM 35.9519 -83.8644 207° Southwest 372 428 36,000  Level Indianapolis Center
03:55PM 35.8522 -83.9075 199° South 376 433 36,000  Level Indianapolis Center
03:59PM 35.2452 -84.0545 199° South 394 453 36,000  Level FlightAware ADS-B (KDZJ)
04:00PM 35.1771 -84.0708 191° South 392 451 36,000  Level FlightAware ADS-B (KDZJ)
04:01PM 35.0900 -84.0917 191° South 393 452 36,000  Level FlightAware ADS-B (KDZJ)
04:01PM 35.0191 -84.1086 191° South 392 451 36,000  Level FlightAware ADS-B (KDZJ)
04:02PM 34.9131 -84.1339 191° South 391 450 36,000 -120 Level FlightAware ADS-B (KDZJ)
04:03PM 34.8428 -84.1506 191° South 393 452 35,900 -420 Descending FlightAware ADS-B (KDZJ)
04:04PM 34.7702 -84.1680 191° South 392 451 35,500 -600 Descending FlightAware ADS-B (KDZJ)
04:04PM 34.6977 -84.1852 191° South 396 456 35,100 -420 Descending FlightAware ADS-B (KDZJ)
04:05PM 34.6269 -84.2019 191° South 397 457 35,000 -120 Descending FlightAware ADS-B (KDZJ)
04:06PM 34.5486 -84.2204 191° South 396 456 35,000  Level FlightAware ADS-B (KDZJ)
04:06PM 34.4758 -84.2376 191° South 398 458 35,000  Level FlightAware ADS-B (KDZJ)
04:07PM 34.4007 -84.2552 191° South 398 458 35,000  Level FlightAware ADS-B (KDZJ)
04:08PM 34.3302 -84.2718 191° South 397 457 35,000  Level FlightAware ADS-B (KDZJ)
04:08PM 34.2551 -84.2894 191° South 397 457 35,000  Level FlightAware ADS-B (KDZJ)
04:09PM 34.1826 -84.3064 191° South 395 455 35,000  Level FlightAware ADS-B (KDZJ)
04:11PM 33.9733 -84.3553 191° South 396 456 35,000  Level FlightAware ADS-B (KDZJ)
04:12PM 33.9567 -84.3619 191° South 399 459 35,000  Level Atlanta Center
04:13PM 33.8375 -84.3889 191° South 408 470 35,000  Level Atlanta Center
04:14PM 33.7289 -84.4111 190° South 408 470 35,000  Level Atlanta Center
04:15PM 33.6183 -84.4331 189° South 414 476 35,000  Level Atlanta Center
04:16PM 33.5036 -84.4375 182° South 414 476 35,000  Level Atlanta Center
04:17PM 33.3908 -84.4344 179° South 414 476 35,000  Level Atlanta Center
04:18PM 33.2717 -84.4314 179° South 419 482 35,000  Level Atlanta Center
04:19PM 33.1550 -84.4308 180° South 419 482 35,000  Level Atlanta Center
04:20PM 33.0400 -84.4278 179° South 424 488 35,000  Level Atlanta Center
04:21PM 32.9211 -84.4275 180° South 419 482 35,000  Level Atlanta Center
04:22PM 32.8147 -84.4269 180° South 419 482 35,000  Level Atlanta Center
04:23PM 32.7000 -84.4164 176° South 419 482 35,000  Level Atlanta Center
04:24PM 32.5831 -84.4161 180° South 419 482 35,000  Level Atlanta Center
04:25PM 32.4661 -84.4131 179° South 419 482 35,000  Level Atlanta Center
04:26PM 32.3472 -84.4100 179° South 419 482 35,000  Level Atlanta Center
04:27PM 32.2303 -84.4097 180° South 419 482 35,000  Level Atlanta Center
04:28PM 32.1133 -84.4067 179° South 419 482 35,000  Level Atlanta Center
04:29PM 31.9944 -84.4039 179° South 419 482 35,000  Level Atlanta Center
04:32PM 31.6189 -84.3956 179° South 427 491 35,000  Level Jacksonville Center
04:33PM 31.5019 -84.3936 179° South 421 484 35,000  Level Jacksonville Center
04:34PM 31.3853 -84.3917 179° South 410 472 35,000  Level Jacksonville Center
04:35PM 31.2661 -84.3897 179° South 410 472 35,000  Level Jacksonville Center
04:36PM 31.1472 -84.3878 179° South 423 487 35,000  Level Jacksonville Center
04:37PM 31.0261 -84.3836 178° South 423 487 35,000  Level Jacksonville Center
04:38PM 30.9072 -84.3817 179° South 423 487 35,000  Level Jacksonville Center
04:39PM 30.7881 -84.3822 180° South 428 493 35,000  Level Jacksonville Center
04:40PM 30.6672 -84.3756 177° South 433 498 35,000  Level Jacksonville Center
04:41PM 30.5442 -84.3494 170° South 443 510 35,000  Level Jacksonville Center
04:42PM 30.4258 -84.2897 156° South 443 510 35,000  Level Jacksonville Center
04:43PM 30.3119 -84.2136 150° Southeast 461 531 35,000  Level Jacksonville Center
04:44PM 30.1894 -84.1350 151° Southeast 461 531 35,000  Level Jacksonville Center
04:45PM 30.0733 -84.0614 151° Southeast 461 531 35,000  Level Jacksonville Center
04:46PM 29.9611 -83.9883 151° Southeast 466 536 35,000  Level Jacksonville Center
04:47PM 29.8469 -83.9103 149° Southeast 466 536 35,000  Level Jacksonville Center
04:48PM 29.7286 -83.8397 153° Southeast 471 542 35,000  Level Jacksonville Center
04:49PM 29.6142 -83.7669 151° Southeast 471 542 35,000  Level Jacksonville Center
04:50PM 29.5000 -83.6894 149° Southeast 476 548 35,000  Level Jacksonville Center
04:51PM 29.3833 -83.6147 151° Southeast 476 548 35,000  Level Jacksonville Center
04:52PM 29.2669 -83.5400 151° Southeast 476 548 35,000  Level Jacksonville Center
04:53PM 29.1525 -83.4681 151° Southeast 481 554 35,000  Level Jacksonville Center
04:54PM 29.0442 -83.3983 151° Southeast 481 554 35,000  Level Jacksonville Center
04:55PM 28.9317 -83.3267 151° Southeast 475 547 35,000  Level Jacksonville Center
04:56PM 28.8172 -83.2528 150° Southeast 475 547 35,000  Level Jacksonville Center
04:57PM 28.7006 -83.1814 152° Southeast 480 552 35,000  Level Jacksonville Center
04:58PM 28.5858 -83.1078 151° Southeast 480 552 35,000  Level Jacksonville Center
05:03PM 27.9409 -82.7050 151° Southeast 479 551 35,000  Level FlightAware ADS-B (KMCO)
05:04PM 27.8814 -82.6682 151° Southeast 475 547 35,000  Level FlightAware ADS-B (KMCO)
05:05PM 27.7407 -82.6452 172° South 427 491 35,000  Level FlightAware ADS-B (KMCO)
05:10PM 27.1286 -82.6237 178° South 433 498 35,000  Level FlightAware ADS-B (KMCO)
05:11PM 27.0361 -82.6205 178° South 433 498 35,000  Level FlightAware ADS-B (KMCO)
05:12PM 26.8831 -82.6152 178° South 435 501 35,000  Level FlightAware ADS-B (KMCO)
05:15PM 26.6317 -82.6066 178° South 435 501 35,000  Level FlightAware ADS-B (KMCO)
05:15PM 26.5365 -82.6033 178° South 434 499 35,000  Level FlightAware ADS-B (KMCO)
05:16PM 26.4655 -82.6010 178° South 435 501 35,000  Level FlightAware ADS-B (KMCO)
05:17PM 26.3736 -82.5979 178° South 437 503 35,000  Level FlightAware ADS-B (KMCO)
05:17PM 26.3023 -82.5955 178° South 439 505 35,000  Level FlightAware ADS-B (KMCO)
05:19PM 26.1062 -82.5887 178° South 438 504 35,000  Level FlightAware ADS-B (KMCO)
05:19PM 26.0387 -82.5864 178° South 437 503 35,000  Level FlightAware ADS-B (KMCO)
05:20PM 25.9634 -82.5839 178° South 438 504 35,000  Level FlightAware ADS-B (KMCO)
05:21PM 25.8620 -82.5805 178° South 440 506 35,000  Level FlightAware ADS-B (KMCO)
05:21PM 25.7824 -82.5779 178° South 440 506 35,000  Level FlightAware ADS-B (KMCO)
05:22PM 25.7085 -82.5754 178° South 439 505 35,000  Level FlightAware ADS-B (KMCO)
05:23PM 25.6426 -82.5731 178° South 438 504 35,000  Level FlightAware ADS-B (KMCO)
05:23PM 25.5439 -82.5697 178° South 437 503 35,000  Level FlightAware ADS-B (KMCO)
05:24PM 25.4742 -82.5703 178° South 440 506 35,000  Level Miami Center
05:25PM 25.3531 -82.5669 179° South 440 506 35,000  Level Miami Center
05:26PM 25.2322 -82.5614 178° South 440 506 35,000  Level Miami Center
05:27PM 25.1092 -82.5578 178° South 440 506 35,000  Level Miami Center
05:28PM 24.9864 -82.5544 179° South 440 506 35,000 -60 Level Miami Center
05:29PM 24.8633 -82.5486 178° South 440 506 34,900 -1,080 Descending Miami Center
05:30PM 24.7425 -82.5453 179° South 440 506 32,900 -1,860 Descending Miami Center
05:31PM 24.6194 -82.5419 179° South 440 506 31,200 -1,740 Descending Miami Center
05:32PM 24.5006 -82.5389 179° South 440 506 29,500 -1,740 Descending Miami Center
05:33PM 24.3858 -82.5336 178° South 435 501 27,800 -1,680 Descending Miami Center
05:34PM 24.2733 -82.5308 179° South 423 487 26,200 -1,680 Descending Miami Center
05:35PM 24.1628 -82.5281 179° South 404 465 24,500 -1,680 Descending Miami Center
05:36PM 24.0544 -82.5231 178° South 399 459 22,900 -1,260 Descending Miami Center
05:37PM 23.9539 -82.5278 182° South 389 448 22,000 -900 Descending Miami Center
05:39PM 23.7666 -82.4833 175° South  Level FlightAware Approximate
05:46PM 22.9891 -82.4091 180° South  Level Estimated
05:47PM 22.9891 -82.4091 180° South  Level Estimated
05:48PM 22.9891 -82.4091 180° South  Level Estimated
05:49PM 22.9891 -82.4091 180° South  Level Estimated
05:50PM 22.9891 -82.4091 180° South  Level Estimated
05:51PM 22.9891 -82.4091 180° South  Level Estimated
05:52PM 22.9891 -82.4091 180° South  Level Estimated
05:53PM 22.9891 -82.4091 180° South  Level Estimated
05:54PM 22.9891 -82.4091 180° South  Level Estimated
05:55PM 22.9891 -82.4091 180° South  Level Estimated
05:56PM 22.9891 -82.4091 180° South  Level Estimated
05:57PM 22.9891 -82.4091 180° South  Level Estimated
05:58PM 22.9891 -82.4091 180° South  Level Estimated
05:59PM 22.9891 -82.4091 180° South  Level Estimated
06:00PM 22.9891 -82.4091 180° South  Level Estimated
06:01PM 22.9891 -82.4091 180° South  Level Estimated
06:02PM 22.9891 -82.4091 180° South  Level Estimated
06:03PM 22.9891 -82.4091 180° South  Level Estimated
06:04PM 22.9891 -82.4091 180° South  Level Estimated
06:05PM 22.9891 -82.4091 180° South  Level Estimated
06:06PM 22.9891 -82.4091 180° South  Level Estimated
06:07PM 22.9891 -82.4091 180° South  Level Estimated